PWSweather.com
Personal Weather Stations
Station Observations
KMILAPEE3
Lapeer Michigan, Lapeer, MI 48446

Lapeer MichiganLapeer, MI 48446

Lat: 43.057, Lon: -83.362

Elevation: 897

Station Type: Oregon Scientific WMR-968

Latest ConditionsUpdated 4:39:13 AM EDT Tuesday, Sep 27, 2016
Currently Today's Max Today's Min Today's Average
Temperature 50.2°F10.1°C 52.5°F11.4°C 49.1°F9.5°C 50.0°F10.0°C
Dew Point 36.6°F2.6°C 37.1°F2.8°C 34.8°F1.6°C 35.8°F2.1°C
Winds 3.0 mph SSW4.8 kmh SSW 4.9 mph SSW7.9 kmh SSW - 1.7 mph 2.7 kmh
Wind Gusts 9.7 mph15.6 kmh 10.4 mph16.7 kmh - -
Humidity 59% 60% 55% 58%
Pressure 28.82 in976.0 mb 28.91 in979.0 mb 28.82 in976.0 mb -
Hour Temp Dew Point Humidity Winds Wind Gusts Pressure Precip Precip Rate Daily Precip Total
04:39 AM 50.2°F10.1°C 36.6°F2.6°C 59% 3.0 mph SSW4.8 kmh SSW 9.7 mph15.6 kmh 28.82 in976.0 mb 0.00 in0.0 mm 0.00 in0.0 mm 0.00 in0.0 mm
04:38 AM 50.2°F10.1°C 36.6°F2.6°C 59% 3.0 mph SSW4.8 kmh SSW 9.7 mph15.6 kmh 28.82 in976.0 mb 0.00 in0.0 mm 0.00 in0.0 mm 0.00 in0.0 mm
04:37 AM 50.2°F10.1°C 36.6°F2.6°C 59% 3.6 mph SSW5.8 kmh SSW 10.4 mph16.7 kmh 28.82 in976.0 mb 0.00 in0.0 mm 0.00 in0.0 mm 0.00 in0.0 mm
04:36 AM 50.2°F10.1°C 36.7°F2.6°C 59% 3.4 mph SSW5.5 kmh SSW 10.4 mph16.7 kmh 28.82 in976.0 mb 0.00 in0.0 mm 0.00 in0.0 mm 0.00 in0.0 mm
04:35 AM 50.2°F10.1°C 36.7°F2.6°C 59% 3.1 mph S5.0 kmh S 10.4 mph16.7 kmh 28.82 in976.0 mb 0.00 in0.0 mm 0.00 in0.0 mm 0.00 in0.0 mm
04:34 AM 50.2°F10.1°C 36.7°F2.6°C 59% 3.0 mph SSE4.8 kmh SSE 10.4 mph16.7 kmh 28.82 in976.0 mb 0.00 in0.0 mm 0.00 in0.0 mm 0.00 in0.0 mm
04:33 AM 50.2°F10.1°C 36.7°F2.6°C 59% 4.3 mph S6.9 kmh S 10.4 mph16.7 kmh 28.82 in976.0 mb 0.00 in0.0 mm 0.00 in0.0 mm 0.00 in0.0 mm
04:32 AM 50.2°F10.1°C 36.7°F2.6°C 59% 4.3 mph S6.9 kmh S 10.4 mph16.7 kmh 28.82 in976.0 mb 0.00 in0.0 mm 0.00 in0.0 mm 0.00 in0.0 mm
04:31 AM 50.2°F10.1°C 36.7°F2.6°C 59% 4.3 mph S6.9 kmh S 10.4 mph16.7 kmh 28.82 in976.0 mb 0.00 in0.0 mm 0.00 in0.0 mm 0.00 in0.0 mm
04:30 AM 50.2°F10.1°C 36.7°F2.6°C 59% Calm Calm 10.4 mph16.7 kmh 28.82 in976.0 mb 0.00 in0.0 mm 0.00 in0.0 mm 0.00 in0.0 mm
04:29 AM 50.2°F10.1°C 36.7°F2.6°C 59% Calm Calm 10.4 mph16.7 kmh 28.82 in976.0 mb 0.00 in0.0 mm 0.00 in0.0 mm 0.00 in0.0 mm
04:28 AM 50.2°F10.1°C 36.7°F2.6°C 59% Calm Calm 10.4 mph16.7 kmh 28.82 in976.0 mb 0.00 in0.0 mm 0.00 in0.0 mm 0.00 in0.0 mm
04:27 AM 50.2°F10.1°C 36.7°F2.6°C 59% Calm Calm 8.4 mph13.5 kmh 28.82 in976.0 mb 0.00 in0.0 mm 0.00 in0.0 mm 0.00 in0.0 mm
04:26 AM 50.2°F10.1°C 36.7°F2.6°C 59% 3.7 mph SSE6.0 kmh SSE 8.4 mph13.5 kmh 28.82 in976.0 mb 0.00 in0.0 mm 0.00 in0.0 mm 0.00 in0.0 mm
04:25 AM 50.2°F10.1°C 36.7°F2.6°C 59% 3.7 mph S6.0 kmh S 8.4 mph13.5 kmh 28.82 in976.0 mb 0.00 in0.0 mm 0.00 in0.0 mm 0.00 in0.0 mm
04:24 AM 50.2°F10.1°C 36.7°F2.6°C 59% 3.7 mph SW6.0 kmh SW 8.4 mph13.5 kmh 28.82 in976.0 mb 0.00 in0.0 mm 0.00 in0.0 mm 0.00 in0.0 mm
04:23 AM 50.0°F10.0°C 36.5°F2.5°C 59% Calm Calm 8.4 mph13.5 kmh 28.85 in977.0 mb 0.00 in0.0 mm 0.00 in0.0 mm 0.00 in0.0 mm
04:22 AM 50.0°F10.0°C 36.5°F2.5°C 59% Calm Calm 5.2 mph8.4 kmh 28.85 in977.0 mb 0.00 in0.0 mm 0.00 in0.0 mm 0.00 in0.0 mm
04:21 AM 50.0°F10.0°C 36.5°F2.5°C 59% Calm Calm 5.2 mph8.4 kmh 28.85 in977.0 mb 0.00 in0.0 mm 0.00 in0.0 mm 0.00 in0.0 mm
04:20 AM 50.0°F10.0°C 36.5°F2.5°C 59% Calm Calm 5.2 mph8.4 kmh 28.85 in977.0 mb 0.00 in0.0 mm 0.00 in0.0 mm 0.00 in0.0 mm
04:19 AM 49.8°F9.9°C 36.3°F2.4°C 59% Calm Calm 5.2 mph8.4 kmh 28.85 in977.0 mb 0.00 in0.0 mm 0.00 in0.0 mm 0.00 in0.0 mm
04:18 AM 49.8°F9.9°C 36.3°F2.4°C 59% Calm Calm 5.2 mph8.4 kmh 28.85 in977.0 mb 0.00 in0.0 mm 0.00 in0.0 mm 0.00 in0.0 mm
04:17 AM 49.8°F9.9°C 36.3°F2.4°C 59% Calm Calm 7.8 mph12.6 kmh 28.85 in977.0 mb 0.00 in0.0 mm 0.00 in0.0 mm 0.00 in0.0 mm
04:16 AM 49.8°F9.9°C 36.3°F2.4°C 59% 3.0 mph WSW4.8 kmh WSW 7.8 mph12.6 kmh 28.85 in977.0 mb 0.00 in0.0 mm 0.00 in0.0 mm 0.00 in0.0 mm
04:15 AM 49.8°F9.9°C 36.3°F2.4°C 59% 3.0 mph WSW4.8 kmh WSW 7.8 mph12.6 kmh 28.85 in977.0 mb 0.00 in0.0 mm 0.00 in0.0 mm 0.00 in0.0 mm
04:14 AM 49.8°F9.9°C 36.3°F2.4°C 59% 3.0 mph WSW4.8 kmh WSW 7.8 mph12.6 kmh 28.85 in977.0 mb 0.00 in0.0 mm 0.00 in0.0 mm 0.00 in0.0 mm
04:13 AM 49.8°F9.9°C 36.3°F2.4°C 59% Calm Calm 7.8 mph12.6 kmh 28.85 in977.0 mb 0.00 in0.0 mm 0.00 in0.0 mm 0.00 in0.0 mm
04:12 AM 49.8°F9.9°C 36.3°F2.4°C 59% Calm Calm 7.8 mph12.6 kmh 28.85 in977.0 mb 0.00 in0.0 mm 0.00 in0.0 mm 0.00 in0.0 mm
04:11 AM 49.8°F9.9°C 36.3°F2.4°C 60% Calm Calm 7.8 mph12.6 kmh 28.85 in977.0 mb 0.00 in0.0 mm 0.00 in0.0 mm 0.00 in0.0 mm
04:10 AM 49.8°F9.9°C 36.3°F2.4°C 60% Calm Calm 7.8 mph12.6 kmh 28.85 in977.0 mb 0.00 in0.0 mm 0.00 in0.0 mm 0.00 in0.0 mm
04:09 AM 49.8°F9.9°C 36.3°F2.4°C 60% Calm Calm 7.8 mph12.6 kmh 28.85 in977.0 mb 0.00 in0.0 mm 0.00 in0.0 mm 0.00 in0.0 mm
04:08 AM 49.8°F9.9°C 36.3°F2.4°C 60% 3.0 mph SW4.8 kmh SW 7.8 mph12.6 kmh 28.85 in977.0 mb 0.00 in0.0 mm 0.00 in0.0 mm 0.00 in0.0 mm
04:07 AM 49.8°F9.9°C 36.3°F2.4°C 60% 3.0 mph SW4.8 kmh SW 7.8 mph12.6 kmh 28.85 in977.0 mb 0.00 in0.0 mm 0.00 in0.0 mm 0.00 in0.0 mm
04:06 AM 50.2°F10.1°C 36.7°F2.6°C 60% 3.0 mph WSW4.8 kmh WSW 5.2 mph8.4 kmh 28.85 in977.0 mb 0.00 in0.0 mm 0.00 in0.0 mm 0.00 in0.0 mm
04:05 AM 50.2°F10.1°C 36.7°F2.6°C 60% Calm Calm 5.2 mph8.4 kmh 28.85 in977.0 mb 0.00 in0.0 mm 0.00 in0.0 mm 0.00 in0.0 mm
04:04 AM 50.2°F10.1°C 36.7°F2.6°C 60% Calm Calm 5.8 mph9.3 kmh 28.85 in977.0 mb 0.00 in0.0 mm 0.00 in0.0 mm 0.00 in0.0 mm
04:03 AM 50.2°F10.1°C 36.7°F2.6°C 60% Calm Calm 7.1 mph11.4 kmh 28.85 in977.0 mb 0.00 in0.0 mm 0.00 in0.0 mm 0.00 in0.0 mm
04:02 AM 50.2°F10.1°C 36.7°F2.6°C 60% Calm Calm 7.1 mph11.4 kmh 28.85 in977.0 mb 0.00 in0.0 mm 0.00 in0.0 mm 0.00 in0.0 mm
04:01 AM 50.2°F10.1°C 36.7°F2.6°C 60% Calm Calm 7.1 mph11.4 kmh 28.85 in977.0 mb 0.00 in0.0 mm 0.00 in0.0 mm 0.00 in0.0 mm
04:00 AM 50.2°F10.1°C 36.7°F2.6°C 60% Calm Calm 7.1 mph11.4 kmh 28.85 in977.0 mb 0.00 in0.0 mm 0.00 in0.0 mm 0.00 in0.0 mm
03:59 AM 50.2°F10.1°C 36.7°F2.6°C 60% Calm Calm 7.1 mph11.4 kmh 28.85 in977.0 mb 0.00 in0.0 mm 0.00 in0.0 mm 0.00 in0.0 mm
03:58 AM 50.2°F10.1°C 36.7°F2.6°C 60% Calm Calm 7.1 mph11.4 kmh 28.85 in977.0 mb 0.00 in0.0 mm 0.00 in0.0 mm 0.00 in0.0 mm
03:57 AM 50.4°F10.2°C 36.9°F2.7°C 60% 3.0 mph S4.8 kmh S 7.1 mph11.4 kmh 28.85 in977.0 mb 0.00 in0.0 mm 0.00 in0.0 mm 0.00 in0.0 mm
03:56 AM 50.4°F10.2°C 36.9°F2.7°C 60% 3.0 mph S4.8 kmh S 7.1 mph11.4 kmh 28.85 in977.0 mb 0.00 in0.0 mm 0.00 in0.0 mm 0.00 in0.0 mm
03:55 AM 50.4°F10.2°C 36.9°F2.7°C 60% 3.0 mph S4.8 kmh S 7.1 mph11.4 kmh 28.85 in977.0 mb 0.00 in0.0 mm 0.00 in0.0 mm 0.00 in0.0 mm
03:54 AM 50.4°F10.2°C 36.9°F2.7°C 60% Calm Calm 7.1 mph11.4 kmh 28.85 in977.0 mb 0.00 in0.0 mm 0.00 in0.0 mm 0.00 in0.0 mm
03:53 AM 50.4°F10.2°C 36.9°F2.7°C 60% 3.7 mph SE6.0 kmh SE 5.2 mph8.4 kmh 28.85 in977.0 mb 0.00 in0.0 mm 0.00 in0.0 mm 0.00 in0.0 mm
03:52 AM 50.4°F10.2°C 36.9°F2.7°C 60% 3.7 mph SE6.0 kmh SE 5.2 mph8.4 kmh 28.85 in977.0 mb 0.00 in0.0 mm 0.00 in0.0 mm 0.00 in0.0 mm
03:51 AM 50.4°F10.2°C 36.9°F2.7°C 60% 3.7 mph WSW6.0 kmh WSW 5.2 mph8.4 kmh 28.85 in977.0 mb 0.00 in0.0 mm 0.00 in0.0 mm 0.00 in0.0 mm
03:50 AM 50.4°F10.2°C 36.9°F2.7°C 60% Calm Calm 5.2 mph8.4 kmh 28.85 in977.0 mb 0.00 in0.0 mm 0.00 in0.0 mm 0.00 in0.0 mm
03:49 AM 50.4°F10.2°C 36.9°F2.7°C 60% Calm Calm 5.2 mph8.4 kmh 28.85 in977.0 mb 0.00 in0.0 mm 0.00 in0.0 mm 0.00 in0.0 mm
03:48 AM 50.4°F10.2°C 36.9°F2.7°C 60% Calm Calm 5.2 mph8.4 kmh 28.85 in977.0 mb 0.00 in0.0 mm 0.00 in0.0 mm 0.00 in0.0 mm
03:47 AM 50.4°F10.2°C 36.9°F2.7°C 60% Calm Calm 5.2 mph8.4 kmh 28.85 in977.0 mb 0.00 in0.0 mm 0.00 in0.0 mm 0.00 in0.0 mm
03:46 AM 50.4°F10.2°C 36.9°F2.7°C 60% Calm Calm 5.2 mph8.4 kmh 28.85 in977.0 mb 0.00 in0.0 mm 0.00 in0.0 mm 0.00 in0.0 mm
03:45 AM 50.4°F10.2°C 36.9°F2.7°C 60% Calm Calm 5.2 mph8.4 kmh 28.85 in977.0 mb 0.00 in0.0 mm 0.00 in0.0 mm 0.00 in0.0 mm
03:44 AM 50.4°F10.2°C 36.9°F2.7°C 60% Calm Calm 5.2 mph8.4 kmh 28.85 in977.0 mb 0.00 in0.0 mm 0.00 in0.0 mm 0.00 in0.0 mm
03:43 AM 50.4°F10.2°C 36.9°F2.7°C 60% Calm Calm 5.2 mph8.4 kmh 28.85 in977.0 mb 0.00 in0.0 mm 0.00 in0.0 mm 0.00 in0.0 mm
03:42 AM 50.4°F10.2°C 36.9°F2.7°C 60% Calm Calm 5.2 mph8.4 kmh 28.85 in977.0 mb 0.00 in0.0 mm 0.00 in0.0 mm 0.00 in0.0 mm
03:41 AM 50.4°F10.2°C 36.9°F2.7°C 60% Calm Calm 5.2 mph8.4 kmh 28.85 in977.0 mb 0.00 in0.0 mm 0.00 in0.0 mm 0.00 in0.0 mm
03:40 AM 50.4°F10.2°C 36.9°F2.7°C 60% 3.7 mph SW6.0 kmh SW 5.2 mph8.4 kmh 28.85 in977.0 mb 0.00 in0.0 mm 0.00 in0.0 mm 0.00 in0.0 mm
03:39 AM 50.4°F10.2°C 37.0°F2.8°C 60% 3.7 mph SW6.0 kmh SW 5.2 mph8.4 kmh 28.85 in977.0 mb 0.00 in0.0 mm 0.00 in0.0 mm 0.00 in0.0 mm
03:38 AM 50.4°F10.2°C 37.0°F2.8°C 60% 3.7 mph SW6.0 kmh SW 5.2 mph8.4 kmh 28.85 in977.0 mb 0.00 in0.0 mm 0.00 in0.0 mm 0.00 in0.0 mm
03:37 AM 50.4°F10.2°C 37.0°F2.8°C 60% Calm Calm 4.5 mph7.2 kmh 28.85 in977.0 mb 0.00 in0.0 mm 0.00 in0.0 mm 0.00 in0.0 mm
03:36 AM 50.4°F10.2°C 37.0°F2.8°C 60% Calm Calm 3.9 mph6.3 kmh 28.85 in977.0 mb 0.00 in0.0 mm 0.00 in0.0 mm 0.00 in0.0 mm
03:35 AM 50.4°F10.2°C 37.0°F2.8°C 60% Calm Calm 3.9 mph6.3 kmh 28.85 in977.0 mb 0.00 in0.0 mm 0.00 in0.0 mm 0.00 in0.0 mm
03:34 AM 50.4°F10.2°C 37.0°F2.8°C 60% Calm Calm -- 28.85 in977.0 mb 0.00 in0.0 mm 0.00 in0.0 mm 0.00 in0.0 mm
03:33 AM 50.4°F10.2°C 37.0°F2.8°C 60% Calm Calm 5.2 mph8.4 kmh 28.85 in977.0 mb 0.00 in0.0 mm 0.00 in0.0 mm 0.00 in0.0 mm
03:32 AM 50.4°F10.2°C 37.0°F2.8°C 60% Calm Calm 5.2 mph8.4 kmh 28.85 in977.0 mb 0.00 in0.0 mm 0.00 in0.0 mm 0.00 in0.0 mm
03:31 AM 50.4°F10.2°C 37.0°F2.8°C 60% Calm Calm 7.8 mph12.6 kmh 28.85 in977.0 mb 0.00 in0.0 mm 0.00 in0.0 mm 0.00 in0.0 mm
03:30 AM 50.4°F10.2°C 37.0°F2.8°C 60% Calm Calm 7.8 mph12.6 kmh 28.85 in977.0 mb 0.00 in0.0 mm 0.00 in0.0 mm 0.00 in0.0 mm
03:29 AM 50.5°F10.3°C 37.1°F2.8°C 60% Calm Calm 7.8 mph12.6 kmh 28.85 in977.0 mb 0.00 in0.0 mm 0.00 in0.0 mm 0.00 in0.0 mm
03:28 AM 50.5°F10.3°C 37.1°F2.8°C 60% Calm Calm 7.8 mph12.6 kmh 28.85 in977.0 mb 0.00 in0.0 mm 0.00 in0.0 mm 0.00 in0.0 mm
03:27 AM 50.5°F10.3°C 37.1°F2.8°C 60% Calm Calm 7.8 mph12.6 kmh 28.85 in977.0 mb 0.00 in0.0 mm 0.00 in0.0 mm 0.00 in0.0 mm
03:26 AM 50.5°F10.3°C 37.1°F2.8°C 60% Calm Calm 7.8 mph12.6 kmh 28.85 in977.0 mb 0.00 in0.0 mm 0.00 in0.0 mm 0.00 in0.0 mm
03:25 AM 50.5°F10.3°C 37.1°F2.8°C 60% 4.3 mph S6.9 kmh S 7.8 mph12.6 kmh 28.85 in977.0 mb 0.00 in0.0 mm 0.00 in0.0 mm 0.00 in0.0 mm
03:24 AM 50.0°F10.0°C 36.6°F2.6°C 60% 3.8 mph S6.1 kmh S 7.8 mph12.6 kmh 28.85 in977.0 mb 0.00 in0.0 mm 0.00 in0.0 mm 0.00 in0.0 mm
03:23 AM 50.0°F10.0°C 36.6°F2.6°C 60% 3.4 mph SW5.5 kmh SW 7.8 mph12.6 kmh 28.85 in977.0 mb 0.00 in0.0 mm 0.00 in0.0 mm 0.00 in0.0 mm
03:22 AM 50.0°F10.0°C 36.6°F2.6°C 60% 3.0 mph WSW4.8 kmh WSW 7.8 mph12.6 kmh 28.85 in977.0 mb 0.00 in0.0 mm 0.00 in0.0 mm 0.00 in0.0 mm
03:21 AM 50.0°F10.0°C 36.6°F2.6°C 60% 4.3 mph SE6.9 kmh SE 7.1 mph11.4 kmh 28.85 in977.0 mb 0.00 in0.0 mm 0.00 in0.0 mm 0.00 in0.0 mm
03:20 AM 50.0°F10.0°C 36.6°F2.6°C 60% 4.3 mph SE6.9 kmh SE 7.1 mph11.4 kmh 28.85 in977.0 mb 0.00 in0.0 mm 0.00 in0.0 mm 0.00 in0.0 mm
03:19 AM 50.0°F10.0°C 36.6°F2.6°C 60% 4.3 mph SW6.9 kmh SW 7.1 mph11.4 kmh 28.85 in977.0 mb 0.00 in0.0 mm 0.00 in0.0 mm 0.00 in0.0 mm
03:18 AM 50.0°F10.0°C 36.6°F2.6°C 60% Calm Calm 7.1 mph11.4 kmh 28.85 in977.0 mb 0.00 in0.0 mm 0.00 in0.0 mm 0.00 in0.0 mm
03:17 AM 50.0°F10.0°C 36.6°F2.6°C 60% 3.0 mph E4.8 kmh E 7.1 mph11.4 kmh 28.85 in977.0 mb 0.00 in0.0 mm 0.00 in0.0 mm 0.00 in0.0 mm
03:16 AM 50.0°F10.0°C 36.6°F2.6°C 60% 3.0 mph E4.8 kmh E 7.1 mph11.4 kmh 28.85 in977.0 mb 0.00 in0.0 mm 0.00 in0.0 mm 0.00 in0.0 mm
03:15 AM 50.0°F10.0°C 36.6°F2.6°C 60% 3.0 mph E4.8 kmh E 7.1 mph11.4 kmh 28.85 in977.0 mb 0.00 in0.0 mm 0.00 in0.0 mm 0.00 in0.0 mm
03:14 AM 50.0°F10.0°C 36.6°F2.6°C 60% Calm Calm 7.1 mph11.4 kmh 28.85 in977.0 mb 0.00 in0.0 mm 0.00 in0.0 mm 0.00 in0.0 mm
03:13 AM 50.0°F10.0°C 36.6°F2.6°C 60% Calm Calm 7.1 mph11.4 kmh 28.85 in977.0 mb 0.00 in0.0 mm 0.00 in0.0 mm 0.00 in0.0 mm
03:12 AM 50.0°F10.0°C 36.6°F2.6°C 60% Calm Calm 5.8 mph9.3 kmh 28.85 in977.0 mb 0.00 in0.0 mm 0.00 in0.0 mm 0.00 in0.0 mm
03:11 AM 50.0°F10.0°C 36.6°F2.6°C 60% Calm Calm 5.8 mph9.3 kmh 28.85 in977.0 mb 0.00 in0.0 mm 0.00 in0.0 mm 0.00 in0.0 mm
03:10 AM 50.0°F10.0°C 36.6°F2.6°C 60% Calm Calm 3.9 mph6.3 kmh 28.85 in977.0 mb 0.00 in0.0 mm 0.00 in0.0 mm 0.00 in0.0 mm
03:09 AM 50.0°F10.0°C 36.6°F2.6°C 60% Calm Calm 3.9 mph6.3 kmh 28.85 in977.0 mb 0.00 in0.0 mm 0.00 in0.0 mm 0.00 in0.0 mm
03:08 AM 50.0°F10.0°C 36.6°F2.6°C 60% Calm Calm 3.9 mph6.3 kmh 28.85 in977.0 mb 0.00 in0.0 mm 0.00 in0.0 mm 0.00 in0.0 mm
03:07 AM 50.0°F10.0°C 36.6°F2.6°C 60% Calm Calm 3.9 mph6.3 kmh 28.85 in977.0 mb 0.00 in0.0 mm 0.00 in0.0 mm 0.00 in0.0 mm
03:06 AM 50.0°F10.0°C 36.6°F2.6°C 60% Calm Calm 3.9 mph6.3 kmh 28.85 in977.0 mb 0.00 in0.0 mm 0.00 in0.0 mm 0.00 in0.0 mm
03:05 AM 50.0°F10.0°C 36.6°F2.6°C 60% Calm Calm 3.9 mph6.3 kmh 28.85 in977.0 mb 0.00 in0.0 mm 0.00 in0.0 mm 0.00 in0.0 mm
03:04 AM 50.0°F10.0°C 36.6°F2.6°C 60% Calm Calm 3.9 mph6.3 kmh 28.85 in977.0 mb 0.00 in0.0 mm 0.00 in0.0 mm 0.00 in0.0 mm
03:03 AM 50.0°F10.0°C 36.6°F2.6°C 60% Calm Calm 7.1 mph11.4 kmh 28.85 in977.0 mb 0.00 in0.0 mm 0.00 in0.0 mm 0.00 in0.0 mm
03:02 AM 50.0°F10.0°C 36.6°F2.6°C 60% Calm Calm 7.1 mph11.4 kmh 28.85 in977.0 mb 0.00 in0.0 mm 0.00 in0.0 mm 0.00 in0.0 mm
03:01 AM 50.0°F10.0°C 36.6°F2.6°C 60% Calm Calm 7.1 mph11.4 kmh 28.85 in977.0 mb 0.00 in0.0 mm 0.00 in0.0 mm 0.00 in0.0 mm
03:00 AM 49.3°F9.6°C 35.5°F1.9°C 59% Calm Calm 7.1 mph11.4 kmh 28.85 in977.0 mb 0.00 in0.0 mm 0.00 in0.0 mm 0.00 in0.0 mm
02:59 AM 49.3°F9.6°C 35.5°F1.9°C 59% Calm Calm 7.8 mph12.6 kmh 28.85 in977.0 mb 0.00 in0.0 mm 0.00 in0.0 mm 0.00 in0.0 mm
02:58 AM 49.3°F9.6°C 35.5°F1.9°C 59% Calm Calm 7.8 mph12.6 kmh 28.85 in977.0 mb 0.00 in0.0 mm 0.00 in0.0 mm 0.00 in0.0 mm
02:57 AM 49.3°F9.6°C 35.5°F1.9°C 59% Calm Calm 7.8 mph12.6 kmh 28.85 in977.0 mb 0.00 in0.0 mm 0.00 in0.0 mm 0.00 in0.0 mm
02:56 AM 49.3°F9.6°C 35.5°F1.9°C 59% Calm Calm 7.8 mph12.6 kmh 28.85 in977.0 mb 0.00 in0.0 mm 0.00 in0.0 mm 0.00 in0.0 mm
02:55 AM 49.3°F9.6°C 35.5°F1.9°C 59% Calm Calm 7.8 mph12.6 kmh 28.85 in977.0 mb 0.00 in0.0 mm 0.00 in0.0 mm 0.00 in0.0 mm
02:54 AM 49.3°F9.6°C 35.5°F1.9°C 59% Calm Calm 10.4 mph16.7 kmh 28.85 in977.0 mb 0.00 in0.0 mm 0.00 in0.0 mm 0.00 in0.0 mm
02:53 AM 49.3°F9.6°C 35.5°F1.9°C 59% Calm Calm 10.4 mph16.7 kmh 28.85 in977.0 mb 0.00 in0.0 mm 0.00 in0.0 mm 0.00 in0.0 mm
02:52 AM 49.3°F9.6°C 35.5°F1.9°C 59% Calm Calm 10.4 mph16.7 kmh 28.85 in977.0 mb 0.00 in0.0 mm 0.00 in0.0 mm 0.00 in0.0 mm
02:51 AM 49.3°F9.6°C 35.5°F1.9°C 59% 3.7 mph S6.0 kmh S 10.4 mph16.7 kmh 28.85 in977.0 mb 0.00 in0.0 mm 0.00 in0.0 mm 0.00 in0.0 mm
02:50 AM 49.3°F9.6°C 35.5°F1.9°C 59% 3.7 mph S6.0 kmh S 10.4 mph16.7 kmh 28.85 in977.0 mb 0.00 in0.0 mm 0.00 in0.0 mm 0.00 in0.0 mm
02:49 AM 49.3°F9.6°C 35.5°F1.9°C 59% 3.7 mph SSE6.0 kmh SSE 10.4 mph16.7 kmh 28.85 in977.0 mb 0.00 in0.0 mm 0.00 in0.0 mm 0.00 in0.0 mm
02:48 AM 49.3°F9.6°C 35.5°F1.9°C 59% Calm Calm 10.4 mph16.7 kmh 28.85 in977.0 mb 0.00 in0.0 mm 0.00 in0.0 mm 0.00 in0.0 mm
02:47 AM 49.3°F9.6°C 35.5°F1.9°C 59% Calm Calm 10.4 mph16.7 kmh 28.85 in977.0 mb 0.00 in0.0 mm 0.00 in0.0 mm 0.00 in0.0 mm
02:46 AM 49.3°F9.6°C 35.5°F1.9°C 59% Calm Calm 10.4 mph16.7 kmh 28.85 in977.0 mb 0.00 in0.0 mm 0.00 in0.0 mm 0.00 in0.0 mm
02:45 AM 49.3°F9.6°C 35.5°F1.9°C 59% 4.3 mph S6.9 kmh S 10.4 mph16.7 kmh 28.85 in977.0 mb 0.00 in0.0 mm 0.00 in0.0 mm 0.00 in0.0 mm
02:44 AM 49.3°F9.6°C 35.5°F1.9°C 59% 4.3 mph S6.9 kmh S 10.4 mph16.7 kmh 28.85 in977.0 mb 0.00 in0.0 mm 0.00 in0.0 mm 0.00 in0.0 mm
02:42 AM 49.3°F9.6°C 35.5°F1.9°C 59% Calm Calm 8.4 mph13.5 kmh 28.85 in977.0 mb 0.00 in0.0 mm 0.00 in0.0 mm 0.00 in0.0 mm
02:41 AM 49.3°F9.6°C 35.5°F1.9°C 59% Calm Calm 10.4 mph16.7 kmh 28.85 in977.0 mb 0.00 in0.0 mm 0.00 in0.0 mm 0.00 in0.0 mm
02:40 AM 49.3°F9.6°C 35.5°F1.9°C 59% Calm Calm 10.4 mph16.7 kmh 28.85 in977.0 mb 0.00 in0.0 mm 0.00 in0.0 mm 0.00 in0.0 mm
02:39 AM 49.3°F9.6°C 35.5°F1.9°C 59% Calm Calm 10.4 mph16.7 kmh 28.85 in977.0 mb 0.00 in0.0 mm 0.00 in0.0 mm 0.00 in0.0 mm
02:38 AM 49.3°F9.6°C 35.5°F1.9°C 59% Calm Calm 10.4 mph16.7 kmh 28.88 in978.0 mb 0.00 in0.0 mm 0.00 in0.0 mm 0.00 in0.0 mm
02:37 AM 49.3°F9.6°C 35.5°F1.9°C 59% Calm Calm 10.4 mph16.7 kmh 28.88 in978.0 mb 0.00 in0.0 mm 0.00 in0.0 mm 0.00 in0.0 mm
02:36 AM 49.3°F9.6°C 35.5°F1.9°C 59% 3.0 mph S4.8 kmh S 10.4 mph16.7 kmh 28.88 in978.0 mb 0.00 in0.0 mm 0.00 in0.0 mm 0.00 in0.0 mm
02:35 AM 49.3°F9.6°C 35.5°F1.9°C 59% 3.0 mph SSE4.8 kmh SSE 10.4 mph16.7 kmh 28.88 in978.0 mb 0.00 in0.0 mm 0.00 in0.0 mm 0.00 in0.0 mm
02:34 AM 49.3°F9.6°C 35.5°F1.9°C 59% 3.0 mph SW4.8 kmh SW 10.4 mph16.7 kmh 28.88 in978.0 mb 0.00 in0.0 mm 0.00 in0.0 mm 0.00 in0.0 mm
02:33 AM 49.3°F9.6°C 35.5°F1.9°C 59% 3.3 mph SSW5.3 kmh SSW 10.4 mph16.7 kmh 28.88 in978.0 mb 0.00 in0.0 mm 0.00 in0.0 mm 0.00 in0.0 mm
02:32 AM 49.3°F9.6°C 35.5°F1.9°C 59% 3.3 mph S5.3 kmh S 10.4 mph16.7 kmh 28.88 in978.0 mb 0.00 in0.0 mm 0.00 in0.0 mm 0.00 in0.0 mm
02:31 AM 49.3°F9.6°C 35.5°F1.9°C 59% 3.2 mph SE5.1 kmh SE 8.4 mph13.5 kmh 28.88 in978.0 mb 0.00 in0.0 mm 0.00 in0.0 mm 0.00 in0.0 mm
02:30 AM 49.3°F9.6°C 35.5°F1.9°C 59% 3.5 mph SW5.6 kmh SW 8.4 mph13.5 kmh 28.88 in978.0 mb 0.00 in0.0 mm 0.00 in0.0 mm 0.00 in0.0 mm
02:29 AM 49.3°F9.6°C 35.5°F1.9°C 59% 3.7 mph SW6.0 kmh SW 8.4 mph13.5 kmh 28.88 in978.0 mb 0.00 in0.0 mm 0.00 in0.0 mm 0.00 in0.0 mm
02:28 AM 49.3°F9.6°C 35.5°F1.9°C 59% 3.7 mph S6.0 kmh S 8.4 mph13.5 kmh 28.88 in978.0 mb 0.00 in0.0 mm 0.00 in0.0 mm 0.00 in0.0 mm
02:27 AM 49.3°F9.6°C 35.5°F1.9°C 59% 3.0 mph SW4.8 kmh SW 8.4 mph13.5 kmh 28.88 in978.0 mb 0.00 in0.0 mm 0.00 in0.0 mm 0.00 in0.0 mm
02:26 AM 49.3°F9.6°C 35.5°F1.9°C 59% 3.0 mph SSW4.8 kmh SSW 8.4 mph13.5 kmh 28.88 in978.0 mb 0.00 in0.0 mm 0.00 in0.0 mm 0.00 in0.0 mm
02:25 AM 49.3°F9.6°C 35.5°F1.9°C 59% 3.0 mph SSW4.8 kmh SSW 8.4 mph13.5 kmh 28.88 in978.0 mb 0.00 in0.0 mm 0.00 in0.0 mm 0.00 in0.0 mm
02:24 AM 49.3°F9.6°C 35.5°F1.9°C 59% 3.0 mph S4.8 kmh S 8.4 mph13.5 kmh 28.88 in978.0 mb 0.00 in0.0 mm 0.00 in0.0 mm 0.00 in0.0 mm
02:23 AM 49.3°F9.6°C 35.5°F1.9°C 59% Calm Calm 7.8 mph12.6 kmh 28.88 in978.0 mb 0.00 in0.0 mm 0.00 in0.0 mm 0.00 in0.0 mm
02:22 AM 49.3°F9.6°C 35.5°F1.9°C 59% Calm Calm 7.8 mph12.6 kmh 28.88 in978.0 mb 0.00 in0.0 mm 0.00 in0.0 mm 0.00 in0.0 mm
02:21 AM 49.3°F9.6°C 35.5°F1.9°C 59% Calm Calm 9.1 mph14.6 kmh 28.88 in978.0 mb 0.00 in0.0 mm 0.00 in0.0 mm 0.00 in0.0 mm
02:20 AM 49.3°F9.6°C 35.5°F1.9°C 59% Calm Calm 9.1 mph14.6 kmh 28.88 in978.0 mb 0.00 in0.0 mm 0.00 in0.0 mm 0.00 in0.0 mm
02:19 AM 49.3°F9.6°C 35.5°F1.9°C 59% Calm Calm 9.1 mph14.6 kmh 28.88 in978.0 mb 0.00 in0.0 mm 0.00 in0.0 mm 0.00 in0.0 mm
02:18 AM 49.3°F9.6°C 35.5°F1.9°C 59% 3.7 mph SW6.0 kmh SW 9.1 mph14.6 kmh 28.88 in978.0 mb 0.00 in0.0 mm 0.00 in0.0 mm 0.00 in0.0 mm
02:17 AM 49.3°F9.6°C 35.5°F1.9°C 59% 3.7 mph SW6.0 kmh SW 9.1 mph14.6 kmh 28.88 in978.0 mb 0.00 in0.0 mm 0.00 in0.0 mm 0.00 in0.0 mm
02:16 AM 49.3°F9.6°C 35.5°F1.9°C 59% 3.4 mph SSW5.5 kmh SSW 9.1 mph14.6 kmh 28.88 in978.0 mb 0.00 in0.0 mm 0.00 in0.0 mm 0.00 in0.0 mm
02:15 AM 49.3°F9.6°C 35.5°F1.9°C 59% 3.1 mph SSW5.0 kmh SSW 9.1 mph14.6 kmh 28.88 in978.0 mb 0.00 in0.0 mm 0.00 in0.0 mm 0.00 in0.0 mm
02:14 AM 49.3°F9.6°C 35.5°F1.9°C 59% 3.0 mph S4.8 kmh S 9.1 mph14.6 kmh 28.88 in978.0 mb 0.00 in0.0 mm 0.00 in0.0 mm 0.00 in0.0 mm
02:13 AM 49.3°F9.6°C 35.5°F1.9°C 59% 3.0 mph S4.8 kmh S 9.1 mph14.6 kmh 28.88 in978.0 mb 0.00 in0.0 mm 0.00 in0.0 mm 0.00 in0.0 mm
02:12 AM 49.3°F9.6°C 35.5°F1.9°C 59% 3.0 mph S4.8 kmh S 9.1 mph14.6 kmh 28.88 in978.0 mb 0.00 in0.0 mm 0.00 in0.0 mm 0.00 in0.0 mm
02:11 AM 49.3°F9.6°C 35.0°F1.7°C 58% 3.0 mph S4.8 kmh S 9.1 mph14.6 kmh 28.88 in978.0 mb 0.00 in0.0 mm 0.00 in0.0 mm 0.00 in0.0 mm
02:08 AM 49.3°F9.6°C 35.0°F1.7°C 58% 3.0 mph WSW4.8 kmh WSW 5.8 mph9.3 kmh 28.85 in977.0 mb 0.00 in0.0 mm 0.00 in0.0 mm 0.00 in0.0 mm
02:07 AM 49.3°F9.6°C 35.0°F1.7°C 58% 3.4 mph SW5.5 kmh SW 7.1 mph11.4 kmh 28.85 in977.0 mb 0.00 in0.0 mm 0.00 in0.0 mm 0.00 in0.0 mm
02:06 AM 49.3°F9.6°C 35.0°F1.7°C 58% 3.6 mph SSW5.8 kmh SSW 7.1 mph11.4 kmh 28.85 in977.0 mb 0.00 in0.0 mm 0.00 in0.0 mm 0.00 in0.0 mm
02:05 AM 49.3°F9.6°C 35.0°F1.7°C 58% 3.7 mph SSW6.0 kmh SSW 9.7 mph15.6 kmh 28.85 in977.0 mb 0.00 in0.0 mm 0.00 in0.0 mm 0.00 in0.0 mm
02:04 AM 49.3°F9.6°C 35.0°F1.7°C 58% 3.7 mph WSW6.0 kmh WSW 9.7 mph15.6 kmh 28.85 in977.0 mb 0.00 in0.0 mm 0.00 in0.0 mm 0.00 in0.0 mm
02:03 AM 49.3°F9.6°C 35.0°F1.7°C 58% 4.2 mph WSW6.8 kmh WSW 9.7 mph15.6 kmh 28.85 in977.0 mb 0.00 in0.0 mm 0.00 in0.0 mm 0.00 in0.0 mm
02:02 AM 49.3°F9.6°C 35.0°F1.7°C 58% 4.3 mph SW6.9 kmh SW 9.7 mph15.6 kmh 28.85 in977.0 mb 0.00 in0.0 mm 0.00 in0.0 mm 0.00 in0.0 mm
02:01 AM 49.3°F9.6°C 35.0°F1.7°C 58% 4.3 mph S6.9 kmh S 9.7 mph15.6 kmh 28.85 in977.0 mb 0.00 in0.0 mm 0.00 in0.0 mm 0.00 in0.0 mm
02:00 AM 49.3°F9.6°C 35.0°F1.7°C 58% Calm Calm 9.7 mph15.6 kmh 28.85 in977.0 mb 0.00 in0.0 mm 0.00 in0.0 mm 0.00 in0.0 mm
01:59 AM 49.3°F9.6°C 35.0°F1.7°C 58% Calm Calm 9.7 mph15.6 kmh 28.85 in977.0 mb 0.00 in0.0 mm 0.00 in0.0 mm 0.00 in0.0 mm
01:58 AM 49.3°F9.6°C 35.0°F1.7°C 58% Calm Calm 9.7 mph15.6 kmh 28.85 in977.0 mb 0.00 in0.0 mm 0.00 in0.0 mm 0.00 in0.0 mm
01:57 AM 49.3°F9.6°C 35.0°F1.7°C 58% 4.0 mph W6.4 kmh W 9.7 mph15.6 kmh 28.85 in977.0 mb 0.00 in0.0 mm 0.00 in0.0 mm 0.00 in0.0 mm
01:56 AM 49.3°F9.6°C 35.0°F1.7°C 58% 3.8 mph SW6.1 kmh SW 9.7 mph15.6 kmh 28.85 in977.0 mb 0.00 in0.0 mm 0.00 in0.0 mm 0.00 in0.0 mm
01:55 AM 49.3°F9.6°C 35.0°F1.7°C 58% 3.7 mph S6.0 kmh S 9.1 mph14.6 kmh 28.85 in977.0 mb 0.00 in0.0 mm 0.00 in0.0 mm 0.00 in0.0 mm
01:54 AM 49.3°F9.6°C 35.0°F1.7°C 58% 3.0 mph S4.8 kmh S 9.1 mph14.6 kmh 28.85 in977.0 mb 0.00 in0.0 mm 0.00 in0.0 mm 0.00 in0.0 mm
01:53 AM 49.3°F9.6°C 35.0°F1.7°C 58% 3.0 mph S4.8 kmh S 9.1 mph14.6 kmh 28.88 in978.0 mb 0.00 in0.0 mm 0.00 in0.0 mm 0.00 in0.0 mm
01:52 AM 49.3°F9.6°C 35.0°F1.7°C 58% 3.0 mph S4.8 kmh S 9.1 mph14.6 kmh 28.88 in978.0 mb 0.00 in0.0 mm 0.00 in0.0 mm 0.00 in0.0 mm
01:51 AM 49.3°F9.6°C 35.0°F1.7°C 58% Calm Calm 9.1 mph14.6 kmh 28.88 in978.0 mb 0.00 in0.0 mm 0.00 in0.0 mm 0.00 in0.0 mm
01:50 AM 49.3°F9.6°C 35.0°F1.7°C 58% Calm Calm 9.1 mph14.6 kmh 28.88 in978.0 mb 0.00 in0.0 mm 0.00 in0.0 mm 0.00 in0.0 mm
01:49 AM 49.3°F9.6°C 35.0°F1.7°C 58% 3.0 mph SSW4.8 kmh SSW 9.1 mph14.6 kmh 28.88 in978.0 mb 0.00 in0.0 mm 0.00 in0.0 mm 0.00 in0.0 mm
01:48 AM 49.3°F9.6°C 35.0°F1.7°C 58% 3.0 mph S4.8 kmh S 9.1 mph14.6 kmh 28.88 in978.0 mb 0.00 in0.0 mm 0.00 in0.0 mm 0.00 in0.0 mm
01:47 AM 49.3°F9.6°C 35.0°F1.7°C 58% 3.0 mph S4.8 kmh S 9.1 mph14.6 kmh 28.88 in978.0 mb 0.00 in0.0 mm 0.00 in0.0 mm 0.00 in0.0 mm
01:46 AM 49.1°F9.5°C 34.9°F1.6°C 58% 3.2 mph S5.1 kmh S 8.4 mph13.5 kmh 28.88 in978.0 mb 0.00 in0.0 mm 0.00 in0.0 mm 0.00 in0.0 mm
01:45 AM 49.1°F9.5°C 34.9°F1.6°C 58% 3.3 mph S5.3 kmh S 8.4 mph13.5 kmh 28.88 in978.0 mb 0.00 in0.0 mm 0.00 in0.0 mm 0.00 in0.0 mm
01:44 AM 49.1°F9.5°C 34.9°F1.6°C 58% 3.2 mph S5.1 kmh S 8.4 mph13.5 kmh 28.88 in978.0 mb 0.00 in0.0 mm 0.00 in0.0 mm 0.00 in0.0 mm
01:43 AM 49.1°F9.5°C 34.9°F1.6°C 58% 3.0 mph S4.8 kmh S 8.4 mph13.5 kmh 28.88 in978.0 mb 0.00 in0.0 mm 0.00 in0.0 mm 0.00 in0.0 mm
01:42 AM 49.3°F9.6°C 35.1°F1.7°C 58% Calm Calm 7.8 mph12.6 kmh 28.88 in978.0 mb 0.00 in0.0 mm 0.00 in0.0 mm 0.00 in0.0 mm
01:41 AM 49.3°F9.6°C 35.1°F1.7°C 58% 3.7 mph SE6.0 kmh SE 7.8 mph12.6 kmh 28.88 in978.0 mb 0.00 in0.0 mm 0.00 in0.0 mm 0.00 in0.0 mm
01:40 AM 49.3°F9.6°C 35.1°F1.7°C 58% 3.3 mph S5.3 kmh S 7.8 mph12.6 kmh 28.88 in978.0 mb 0.00 in0.0 mm 0.00 in0.0 mm 0.00 in0.0 mm
01:39 AM 49.3°F9.6°C 35.1°F1.7°C 58% 3.1 mph SSW5.0 kmh SSW 7.8 mph12.6 kmh 28.88 in978.0 mb 0.00 in0.0 mm 0.00 in0.0 mm 0.00 in0.0 mm
01:38 AM 49.3°F9.6°C 35.1°F1.7°C 58% 3.5 mph S5.6 kmh S 7.8 mph12.6 kmh 28.88 in978.0 mb 0.00 in0.0 mm 0.00 in0.0 mm 0.00 in0.0 mm
01:37 AM 49.3°F9.6°C 35.1°F1.7°C 58% 3.4 mph S5.5 kmh S 7.8 mph12.6 kmh 28.88 in978.0 mb 0.00 in0.0 mm 0.00 in0.0 mm 0.00 in0.0 mm
01:36 AM 49.3°F9.6°C 35.1°F1.7°C 58% 3.1 mph SSW5.0 kmh SSW 8.4 mph13.5 kmh 28.88 in978.0 mb 0.00 in0.0 mm 0.00 in0.0 mm 0.00 in0.0 mm
01:35 AM 49.3°F9.6°C 35.1°F1.7°C 58% 3.4 mph S5.5 kmh S 8.4 mph13.5 kmh 28.88 in978.0 mb 0.00 in0.0 mm 0.00 in0.0 mm 0.00 in0.0 mm
01:34 AM 49.3°F9.6°C 35.1°F1.7°C 58% 3.7 mph S6.0 kmh S 8.4 mph13.5 kmh 28.88 in978.0 mb 0.00 in0.0 mm 0.00 in0.0 mm 0.00 in0.0 mm
01:33 AM 49.3°F9.6°C 35.1°F1.7°C 58% 3.7 mph S6.0 kmh S 8.4 mph13.5 kmh 28.88 in978.0 mb 0.00 in0.0 mm 0.00 in0.0 mm 0.00 in0.0 mm
01:32 AM 49.3°F9.6°C 35.1°F1.7°C 58% Calm Calm 8.4 mph13.5 kmh 28.88 in978.0 mb 0.00 in0.0 mm 0.00 in0.0 mm 0.00 in0.0 mm
01:31 AM 49.3°F9.6°C 35.1°F1.7°C 58% Calm Calm 8.4 mph13.5 kmh 28.88 in978.0 mb 0.00 in0.0 mm 0.00 in0.0 mm 0.00 in0.0 mm
01:30 AM 49.3°F9.6°C 35.1°F1.7°C 58% 4.3 mph SSW6.9 kmh SSW 8.4 mph13.5 kmh 28.88 in978.0 mb 0.00 in0.0 mm 0.00 in0.0 mm 0.00 in0.0 mm
01:29 AM 49.3°F9.6°C 35.1°F1.7°C 58% 4.3 mph SSW6.9 kmh SSW 8.4 mph13.5 kmh 28.88 in978.0 mb 0.00 in0.0 mm 0.00 in0.0 mm 0.00 in0.0 mm
01:28 AM 49.3°F9.6°C 35.1°F1.7°C 58% 4.3 mph SSW6.9 kmh SSW 8.4 mph13.5 kmh 28.88 in978.0 mb 0.00 in0.0 mm 0.00 in0.0 mm 0.00 in0.0 mm
01:27 AM 49.3°F9.6°C 35.1°F1.7°C 58% 4.3 mph SSW6.9 kmh SSW 9.1 mph14.6 kmh 28.88 in978.0 mb 0.00 in0.0 mm 0.00 in0.0 mm 0.00 in0.0 mm
01:26 AM 49.6°F9.8°C 34.8°F1.6°C 57% Calm Calm 9.1 mph14.6 kmh 28.88 in978.0 mb 0.00 in0.0 mm 0.00 in0.0 mm 0.00 in0.0 mm
01:25 AM 49.6°F9.8°C 34.8°F1.6°C 57% Calm Calm 9.1 mph14.6 kmh 28.88 in978.0 mb 0.00 in0.0 mm 0.00 in0.0 mm 0.00 in0.0 mm
01:24 AM 49.6°F9.8°C 34.8°F1.6°C 57% Calm Calm 9.1 mph14.6 kmh 28.88 in978.0 mb 0.00 in0.0 mm 0.00 in0.0 mm 0.00 in0.0 mm
01:23 AM 49.6°F9.8°C 34.8°F1.6°C 57% Calm Calm 9.1 mph14.6 kmh 28.88 in978.0 mb 0.00 in0.0 mm 0.00 in0.0 mm 0.00 in0.0 mm
01:22 AM 49.6°F9.8°C 34.8°F1.6°C 57% 3.0 mph SSW4.8 kmh SSW 9.1 mph14.6 kmh 28.88 in978.0 mb 0.00 in0.0 mm 0.00 in0.0 mm 0.00 in0.0 mm
01:21 AM 49.6°F9.8°C 34.8°F1.6°C 57% 3.0 mph SSW4.8 kmh SSW 9.1 mph14.6 kmh 28.88 in978.0 mb 0.00 in0.0 mm 0.00 in0.0 mm 0.00 in0.0 mm
01:20 AM 49.6°F9.8°C 34.8°F1.6°C 57% 3.5 mph SSW5.6 kmh SSW 9.1 mph14.6 kmh 28.88 in978.0 mb 0.00 in0.0 mm 0.00 in0.0 mm 0.00 in0.0 mm
01:19 AM 49.6°F9.8°C 34.8°F1.6°C 57% 3.4 mph SSW5.5 kmh SSW 9.1 mph14.6 kmh 28.88 in978.0 mb 0.00 in0.0 mm 0.00 in0.0 mm 0.00 in0.0 mm
01:18 AM 49.6°F9.8°C 34.8°F1.6°C 57% 4.0 mph S6.4 kmh S 9.1 mph14.6 kmh 28.88 in978.0 mb 0.00 in0.0 mm 0.00 in0.0 mm 0.00 in0.0 mm
01:17 AM 49.6°F9.8°C 34.8°F1.6°C 57% 4.3 mph S6.9 kmh S 8.4 mph13.5 kmh 28.88 in978.0 mb 0.00 in0.0 mm 0.00 in0.0 mm 0.00 in0.0 mm
01:16 AM 49.6°F9.8°C 34.8°F1.6°C 57% 4.9 mph SSW7.9 kmh SSW 8.4 mph13.5 kmh 28.88 in978.0 mb 0.00 in0.0 mm 0.00 in0.0 mm 0.00 in0.0 mm
01:15 AM 49.6°F9.8°C 34.8°F1.6°C 57% 3.5 mph SSW5.6 kmh SSW 8.4 mph13.5 kmh 28.88 in978.0 mb 0.00 in0.0 mm 0.00 in0.0 mm 0.00 in0.0 mm
01:14 AM 49.6°F9.8°C 34.8°F1.6°C 57% 3.0 mph S4.8 kmh S 7.1 mph11.4 kmh 28.88 in978.0 mb 0.00 in0.0 mm 0.00 in0.0 mm 0.00 in0.0 mm
01:13 AM 49.6°F9.8°C 34.8°F1.6°C 57% 3.0 mph S4.8 kmh S 7.1 mph11.4 kmh 28.88 in978.0 mb 0.00 in0.0 mm 0.00 in0.0 mm 0.00 in0.0 mm
01:12 AM 49.6°F9.8°C 34.8°F1.6°C 57% 3.0 mph S4.8 kmh S 8.4 mph13.5 kmh 28.88 in978.0 mb 0.00 in0.0 mm 0.00 in0.0 mm 0.00 in0.0 mm
01:11 AM 49.6°F9.8°C 34.8°F1.6°C 57% Calm Calm 8.4 mph13.5 kmh 28.88 in978.0 mb 0.00 in0.0 mm 0.00 in0.0 mm 0.00 in0.0 mm
01:10 AM 49.6°F9.8°C 34.8°F1.6°C 57% 3.7 mph S6.0 kmh S 8.4 mph13.5 kmh 28.88 in978.0 mb 0.00 in0.0 mm 0.00 in0.0 mm 0.00 in0.0 mm
01:09 AM 49.6°F9.8°C 34.8°F1.6°C 57% 3.7 mph S6.0 kmh S 8.4 mph13.5 kmh 28.88 in978.0 mb 0.00 in0.0 mm 0.00 in0.0 mm 0.00 in0.0 mm
01:08 AM 49.6°F9.8°C 34.8°F1.6°C 57% 3.7 mph S6.0 kmh S 8.4 mph13.5 kmh 28.88 in978.0 mb 0.00 in0.0 mm 0.00 in0.0 mm 0.00 in0.0 mm
01:07 AM 49.6°F9.8°C 34.8°F1.6°C 57% Calm Calm 8.4 mph13.5 kmh 28.88 in978.0 mb 0.00 in0.0 mm 0.00 in0.0 mm 0.00 in0.0 mm
01:06 AM 49.6°F9.8°C 34.8°F1.6°C 57% 3.0 mph SSW4.8 kmh SSW 8.4 mph13.5 kmh 28.88 in978.0 mb 0.00 in0.0 mm 0.00 in0.0 mm 0.00 in0.0 mm
01:05 AM 49.6°F9.8°C 34.8°F1.6°C 57% 3.0 mph SSW4.8 kmh SSW 8.4 mph13.5 kmh 28.88 in978.0 mb 0.00 in0.0 mm 0.00 in0.0 mm 0.00 in0.0 mm
01:04 AM 49.6°F9.8°C 34.8°F1.6°C 57% 3.0 mph S4.8 kmh S 8.4 mph13.5 kmh 28.88 in978.0 mb 0.00 in0.0 mm 0.00 in0.0 mm 0.00 in0.0 mm
01:03 AM 49.6°F9.8°C 34.8°F1.6°C 57% 3.0 mph S4.8 kmh S 8.4 mph13.5 kmh 28.88 in978.0 mb 0.00 in0.0 mm 0.00 in0.0 mm 0.00 in0.0 mm
01:02 AM 49.6°F9.8°C 34.8°F1.6°C 57% 3.0 mph S4.8 kmh S 8.4 mph13.5 kmh 28.88 in978.0 mb 0.00 in0.0 mm 0.00 in0.0 mm 0.00 in0.0 mm
01:01 AM 49.6°F9.8°C 34.8°F1.6°C 57% Calm Calm 8.4 mph13.5 kmh 28.88 in978.0 mb 0.00 in0.0 mm 0.00 in0.0 mm 0.00 in0.0 mm
01:00 AM 49.6°F9.8°C 34.8°F1.6°C 57% Calm Calm 8.4 mph13.5 kmh 28.88 in978.0 mb 0.00 in0.0 mm 0.00 in0.0 mm 0.00 in0.0 mm
12:59 AM 49.6°F9.8°C 34.8°F1.6°C 57% 3.0 mph SSE4.8 kmh SSE 8.4 mph13.5 kmh 28.88 in978.0 mb 0.00 in0.0 mm 0.00 in0.0 mm 0.00 in0.0 mm
12:58 AM 49.6°F9.8°C 34.8°F1.6°C 57% 3.0 mph SSE4.8 kmh SSE 8.4 mph13.5 kmh 28.88 in978.0 mb 0.00 in0.0 mm 0.00 in0.0 mm 0.00 in0.0 mm
12:57 AM 49.6°F9.8°C 34.8°F1.6°C 57% 3.0 mph SSW4.8 kmh SSW 8.4 mph13.5 kmh 28.88 in978.0 mb 0.00 in0.0 mm 0.00 in0.0 mm 0.00 in0.0 mm
12:56 AM 49.6°F9.8°C 34.8°F1.6°C 57% 3.0 mph SW4.8 kmh SW 8.4 mph13.5 kmh 28.88 in978.0 mb 0.00 in0.0 mm 0.00 in0.0 mm 0.00 in0.0 mm
12:55 AM 49.6°F9.8°C 34.8°F1.6°C 57% 3.4 mph SW5.5 kmh SW 7.1 mph11.4 kmh 28.88 in978.0 mb 0.00 in0.0 mm 0.00 in0.0 mm 0.00 in0.0 mm
12:54 AM 50.7°F10.4°C 35.3°F1.8°C 55% 3.7 mph SSW6.0 kmh SSW 7.1 mph11.4 kmh 28.88 in978.0 mb 0.00 in0.0 mm 0.00 in0.0 mm 0.00 in0.0 mm
12:53 AM 50.7°F10.4°C 35.3°F1.8°C 55% 3.7 mph SSW6.0 kmh SSW 5.8 mph9.3 kmh 28.88 in978.0 mb 0.00 in0.0 mm 0.00 in0.0 mm 0.00 in0.0 mm
12:52 AM 50.7°F10.4°C 35.3°F1.8°C 55% Calm Calm 5.8 mph9.3 kmh 28.88 in978.0 mb 0.00 in0.0 mm 0.00 in0.0 mm 0.00 in0.0 mm
12:51 AM 50.7°F10.4°C 35.3°F1.8°C 55% Calm Calm 5.8 mph9.3 kmh 28.88 in978.0 mb 0.00 in0.0 mm 0.00 in0.0 mm 0.00 in0.0 mm
12:50 AM 50.7°F10.4°C 35.3°F1.8°C 55% Calm Calm 5.2 mph8.4 kmh 28.88 in978.0 mb 0.00 in0.0 mm 0.00 in0.0 mm 0.00 in0.0 mm
12:49 AM 50.7°F10.4°C 35.3°F1.8°C 55% Calm Calm 5.2 mph8.4 kmh 28.88 in978.0 mb 0.00 in0.0 mm 0.00 in0.0 mm 0.00 in0.0 mm
12:48 AM 50.7°F10.4°C 35.3°F1.8°C 55% Calm Calm 5.2 mph8.4 kmh 28.88 in978.0 mb 0.00 in0.0 mm 0.00 in0.0 mm 0.00 in0.0 mm
12:47 AM 50.7°F10.4°C 35.3°F1.8°C 55% Calm Calm 5.2 mph8.4 kmh 28.88 in978.0 mb 0.00 in0.0 mm 0.00 in0.0 mm 0.00 in0.0 mm
12:46 AM 50.7°F10.4°C 35.3°F1.8°C 55% Calm Calm 5.2 mph8.4 kmh 28.88 in978.0 mb 0.00 in0.0 mm 0.00 in0.0 mm 0.00 in0.0 mm
12:44 AM 50.7°F10.4°C 35.3°F1.8°C 55% Calm Calm 5.2 mph8.4 kmh 28.88 in978.0 mb 0.00 in0.0 mm 0.00 in0.0 mm 0.00 in0.0 mm
12:43 AM 50.7°F10.4°C 35.3°F1.8°C 55% Calm Calm 5.2 mph8.4 kmh 28.88 in978.0 mb 0.00 in0.0 mm 0.00 in0.0 mm 0.00 in0.0 mm
12:42 AM 50.7°F10.4°C 35.3°F1.8°C 55% Calm Calm 5.2 mph8.4 kmh 28.88 in978.0 mb 0.00 in0.0 mm 0.00 in0.0 mm 0.00 in0.0 mm
12:41 AM 50.7°F10.4°C 35.3°F1.8°C 55% 3.0 mph SSW4.8 kmh SSW 7.8 mph12.6 kmh 28.88 in978.0 mb 0.00 in0.0 mm 0.00 in0.0 mm 0.00 in0.0 mm
12:40 AM 50.7°F10.4°C 35.3°F1.8°C 55% 3.0 mph SSW4.8 kmh SSW 7.8 mph12.6 kmh 28.88 in978.0 mb 0.00 in0.0 mm 0.00 in0.0 mm 0.00 in0.0 mm
12:39 AM 50.7°F10.4°C 35.3°F1.8°C 55% 3.0 mph SSW4.8 kmh SSW 7.8 mph12.6 kmh 28.88 in978.0 mb 0.00 in0.0 mm 0.00 in0.0 mm 0.00 in0.0 mm
12:38 AM 50.7°F10.4°C 35.3°F1.8°C 55% Calm Calm 7.8 mph12.6 kmh 28.88 in978.0 mb 0.00 in0.0 mm 0.00 in0.0 mm 0.00 in0.0 mm
12:37 AM 50.7°F10.4°C 35.3°F1.8°C 55% Calm Calm 7.8 mph12.6 kmh 28.88 in978.0 mb 0.00 in0.0 mm 0.00 in0.0 mm 0.00 in0.0 mm
12:36 AM 50.7°F10.4°C 35.3°F1.8°C 55% Calm Calm 7.8 mph12.6 kmh 28.88 in978.0 mb 0.00 in0.0 mm 0.00 in0.0 mm 0.00 in0.0 mm
12:35 AM 50.7°F10.4°C 35.3°F1.8°C 55% Calm Calm 7.8 mph12.6 kmh 28.88 in978.0 mb 0.00 in0.0 mm 0.00 in0.0 mm 0.00 in0.0 mm
12:34 AM 50.7°F10.4°C 35.3°F1.8°C 55% 3.0 mph SSW4.8 kmh SSW 7.8 mph12.6 kmh 28.88 in978.0 mb 0.00 in0.0 mm 0.00 in0.0 mm 0.00 in0.0 mm
12:33 AM 50.7°F10.4°C 35.3°F1.8°C 55% 3.0 mph SSW4.8 kmh SSW 7.8 mph12.6 kmh 28.88 in978.0 mb 0.00 in0.0 mm 0.00 in0.0 mm 0.00 in0.0 mm
12:32 AM 50.7°F10.4°C 35.3°F1.8°C 55% 3.0 mph SSW4.8 kmh SSW 7.8 mph12.6 kmh 28.88 in978.0 mb 0.00 in0.0 mm 0.00 in0.0 mm 0.00 in0.0 mm
12:31 AM 50.7°F10.4°C 35.4°F1.9°C 55% Calm Calm 5.2 mph8.4 kmh 28.88 in978.0 mb 0.00 in0.0 mm 0.00 in0.0 mm 0.00 in0.0 mm
12:30 AM 50.7°F10.4°C 35.4°F1.9°C 55% Calm Calm 5.2 mph8.4 kmh 28.88 in978.0 mb 0.00 in0.0 mm 0.00 in0.0 mm 0.00 in0.0 mm
12:29 AM 50.7°F10.4°C 35.4°F1.9°C 55% Calm Calm 5.2 mph8.4 kmh 28.88 in978.0 mb 0.00 in0.0 mm 0.00 in0.0 mm 0.00 in0.0 mm
12:28 AM 50.7°F10.4°C 35.4°F1.9°C 55% Calm Calm 5.2 mph8.4 kmh 28.88 in978.0 mb 0.00 in0.0 mm 0.00 in0.0 mm 0.00 in0.0 mm
12:27 AM 50.7°F10.4°C 35.4°F1.9°C 55% Calm Calm 5.2 mph8.4 kmh 28.88 in978.0 mb 0.00 in0.0 mm 0.00 in0.0 mm 0.00 in0.0 mm
12:26 AM 50.7°F10.4°C 35.4°F1.9°C 55% Calm Calm 5.2 mph8.4 kmh 28.88 in978.0 mb 0.00 in0.0 mm 0.00 in0.0 mm 0.00 in0.0 mm
12:25 AM 50.7°F10.4°C 35.4°F1.9°C 55% Calm Calm 5.2 mph8.4 kmh 28.88 in978.0 mb 0.00 in0.0 mm 0.00 in0.0 mm 0.00 in0.0 mm
12:24 AM 50.7°F10.4°C 35.4°F1.9°C 55% Calm Calm 5.2 mph8.4 kmh 28.88 in978.0 mb 0.00 in0.0 mm 0.00 in0.0 mm 0.00 in0.0 mm
12:23 AM 50.7°F10.4°C 35.4°F1.9°C 55% Calm Calm 5.2 mph8.4 kmh 28.88 in978.0 mb 0.00 in0.0 mm 0.00 in0.0 mm 0.00 in0.0 mm
12:22 AM 50.7°F10.4°C 35.4°F1.9°C 55% Calm Calm 5.2 mph8.4 kmh 28.88 in978.0 mb 0.00 in0.0 mm 0.00 in0.0 mm 0.00 in0.0 mm
12:21 AM 50.9°F10.5°C 35.5°F1.9°C 55% Calm Calm 5.2 mph8.4 kmh 28.88 in978.0 mb 0.00 in0.0 mm 0.00 in0.0 mm 0.00 in0.0 mm
12:20 AM 50.9°F10.5°C 35.5°F1.9°C 55% Calm Calm 5.2 mph8.4 kmh 28.88 in978.0 mb 0.00 in0.0 mm 0.00 in0.0 mm 0.00 in0.0 mm
12:19 AM 50.9°F10.5°C 35.5°F1.9°C 55% Calm Calm 5.2 mph8.4 kmh 28.88 in978.0 mb 0.00 in0.0 mm 0.00 in0.0 mm 0.00 in0.0 mm
12:18 AM 50.9°F10.5°C 35.5°F1.9°C 55% Calm Calm 5.2 mph8.4 kmh 28.88 in978.0 mb 0.00 in0.0 mm 0.00 in0.0 mm 0.00 in0.0 mm
12:17 AM 50.9°F10.5°C 35.5°F1.9°C 55% Calm Calm 6.5 mph10.5 kmh 28.88 in978.0 mb 0.00 in0.0 mm 0.00 in0.0 mm 0.00 in0.0 mm
12:16 AM 50.9°F10.5°C 35.5°F1.9°C 55% Calm Calm 6.5 mph10.5 kmh 28.88 in978.0 mb 0.00 in0.0 mm 0.00 in0.0 mm 0.00 in0.0 mm
12:15 AM 51.1°F10.6°C 35.7°F2.1°C 55% Calm Calm 6.5 mph10.5 kmh 28.88 in978.0 mb 0.00 in0.0 mm 0.00 in0.0 mm 0.00 in0.0 mm
12:14 AM 51.1°F10.6°C 35.7°F2.1°C 55% Calm Calm 7.8 mph12.6 kmh 28.88 in978.0 mb 0.00 in0.0 mm 0.00 in0.0 mm 0.00 in0.0 mm
12:13 AM 51.1°F10.6°C 35.7°F2.1°C 55% Calm Calm 7.8 mph12.6 kmh 28.88 in978.0 mb 0.00 in0.0 mm 0.00 in0.0 mm 0.00 in0.0 mm
12:12 AM 51.1°F10.6°C 35.7°F2.1°C 55% Calm Calm 7.8 mph12.6 kmh 28.88 in978.0 mb 0.00 in0.0 mm 0.00 in0.0 mm 0.00 in0.0 mm
12:11 AM 51.3°F10.7°C 35.9°F2.2°C 55% Calm Calm 7.8 mph12.6 kmh 28.88 in978.0 mb 0.00 in0.0 mm 0.00 in0.0 mm 0.00 in0.0 mm
12:10 AM 52.5°F11.4°C 37.0°F2.8°C 55% Calm Calm 7.8 mph12.6 kmh 28.88 in978.0 mb 0.00 in0.0 mm 0.00 in0.0 mm 0.00 in0.0 mm
12:09 AM 52.5°F11.4°C 37.0°F2.8°C 55% Calm Calm 7.8 mph12.6 kmh 28.88 in978.0 mb 0.00 in0.0 mm 0.00 in0.0 mm 0.00 in0.0 mm
12:08 AM 52.5°F11.4°C 37.0°F2.8°C 55% Calm Calm 7.8 mph12.6 kmh 28.91 in979.0 mb 0.00 in0.0 mm 0.00 in0.0 mm 0.00 in0.0 mm
12:07 AM 52.5°F11.4°C 37.0°F2.8°C 55% 3.0 mph SE4.8 kmh SE 7.8 mph12.6 kmh 28.91 in979.0 mb 0.00 in0.0 mm 0.00 in0.0 mm 0.00 in0.0 mm
12:06 AM 52.5°F11.4°C 37.0°F2.8°C 55% 3.3 mph SSE5.3 kmh SSE 7.8 mph12.6 kmh 28.91 in979.0 mb 0.00 in0.0 mm 0.00 in0.0 mm 0.00 in0.0 mm
12:05 AM 52.5°F11.4°C 37.0°F2.8°C 55% 3.5 mph S5.6 kmh S 7.8 mph12.6 kmh 28.91 in979.0 mb 0.00 in0.0 mm 0.00 in0.0 mm 0.00 in0.0 mm
12:04 AM 52.5°F11.4°C 37.0°F2.8°C 55% 3.1 mph S5.0 kmh S 7.1 mph11.4 kmh 28.91 in979.0 mb 0.00 in0.0 mm 0.00 in0.0 mm 0.00 in0.0 mm
12:03 AM 52.5°F11.4°C 37.0°F2.8°C 55% 3.0 mph S4.8 kmh S 7.1 mph11.4 kmh 28.91 in979.0 mb 0.00 in0.0 mm 0.00 in0.0 mm 0.00 in0.0 mm
12:02 AM 52.5°F11.4°C 37.0°F2.8°C 55% 3.2 mph S5.1 kmh S 7.1 mph11.4 kmh 28.91 in979.0 mb 0.00 in0.0 mm 0.00 in0.0 mm 0.00 in0.0 mm
12:01 AM 52.5°F11.4°C 37.0°F2.8°C 55% 3.7 mph S6.0 kmh S 7.1 mph11.4 kmh 28.91 in979.0 mb 0.00 in0.0 mm 0.00 in0.0 mm 0.00 in0.0 mm
12:00 AM 52.5°F11.4°C 37.0°F2.8°C 55% 3.7 mph S6.0 kmh S 7.1 mph11.4 kmh 28.91 in979.0 mb 0.00 in0.0 mm 0.00 in0.0 mm 0.00 in0.0 mm